createdAt,value
2019-03-23T00:00:18.310Z,9.10
2019-03-23T00:02:47.076Z,9.10
2019-03-23T00:05:15.659Z,9.20
2019-03-23T00:07:44.408Z,9.20
2019-03-23T00:10:13.012Z,9.20
2019-03-23T00:12:41.672Z,9.30
2019-03-23T00:15:11.987Z,9.30
2019-03-23T00:17:40.657Z,9.30
2019-03-23T00:20:09.656Z,9.30
2019-03-23T00:22:39.951Z,9.30
2019-03-23T00:25:08.599Z,9.40
2019-03-23T00:27:37.227Z,9.40
2019-03-23T00:30:09.073Z,9.40
2019-03-23T00:32:37.604Z,9.40
2019-03-23T00:35:08.060Z,9.40
2019-03-23T00:37:43.383Z,9.50
2019-03-23T00:40:12.021Z,9.50
2019-03-23T00:42:40.615Z,9.50
2019-03-23T00:45:10.031Z,9.50
2019-03-23T00:47:39.384Z,9.50
2019-03-23T00:50:08.931Z,9.50
2019-03-23T00:52:39.029Z,9.50
2019-03-23T00:55:08.460Z,9.50
2019-03-23T00:57:37.073Z,9.50
2019-03-23T01:00:08.726Z,9.50
2019-03-23T01:02:37.343Z,9.60
2019-03-23T01:05:07.466Z,9.60
2019-03-23T01:07:36.060Z,9.60
2019-03-23T01:10:09.436Z,9.60
2019-03-23T01:12:40.890Z,9.60
2019-03-23T01:15:14.158Z,9.60
2019-03-23T01:17:47.824Z,9.60
2019-03-23T01:20:18.123Z,9.60
2019-03-23T01:22:48.918Z,9.70
2019-03-23T01:25:20.963Z,9.60
2019-03-23T01:27:49.542Z,9.60
2019-03-23T01:30:23.042Z,9.60
2019-03-23T01:32:53.803Z,9.60
2019-03-23T01:35:22.268Z,9.60
2019-03-23T01:37:52.004Z,9.50
2019-03-23T01:40:22.867Z,9.50
2019-03-23T01:42:51.720Z,9.40
2019-03-23T01:45:22.045Z,9.30
2019-03-23T01:47:51.800Z,9.30
2019-03-23T01:50:21.056Z,9.20
2019-03-23T01:52:50.449Z,9.20
2019-03-23T01:55:19.720Z,9.10
2019-03-23T01:57:49.001Z,9.00
2019-03-23T02:00:19.467Z,8.90
2019-03-23T02:02:47.752Z,8.90
2019-03-23T02:05:17.999Z,8.80
2019-03-23T02:07:46.629Z,8.80
2019-03-23T02:10:15.756Z,8.70
2019-03-23T02:12:44.248Z,8.60
2019-03-23T02:15:14.213Z,8.50
2019-03-23T02:17:44.438Z,8.50
2019-03-23T02:20:14.426Z,8.40
2019-03-23T02:22:42.969Z,8.40
2019-03-23T02:25:16.825Z,8.30
2019-03-23T02:27:52.884Z,8.30
2019-03-23T02:30:24.236Z,8.30
2019-03-23T02:32:53.998Z,8.20
2019-03-23T02:35:24.017Z,8.20
2019-03-23T02:37:52.471Z,8.10
2019-03-23T02:40:23.609Z,8.10
2019-03-23T02:42:53.304Z,8.00
2019-03-23T02:45:21.769Z,8.00
2019-03-23T02:47:50.331Z,7.90
2019-03-23T02:50:18.795Z,7.90
2019-03-23T02:52:50.016Z,7.90
2019-03-23T02:55:18.590Z,7.80
2019-03-23T02:57:47.103Z,7.80
2019-03-23T03:00:17.164Z,7.80
2019-03-23T03:02:47.353Z,7.70
2019-03-23T03:05:17.025Z,7.70
2019-03-23T03:07:45.472Z,7.70
2019-03-23T03:10:33.396Z,7.60
2019-03-23T03:13:03.017Z,7.60
2019-03-23T03:15:33.049Z,7.60
2019-03-23T03:18:02.699Z,7.50
2019-03-23T03:20:31.631Z,7.50
2019-03-23T03:23:02.974Z,7.50
2019-03-23T03:25:32.288Z,7.40
2019-03-23T03:28:01.123Z,7.40
2019-03-23T03:30:29.748Z,7.40
2019-03-23T03:32:58.305Z,7.40
2019-03-23T03:35:29.139Z,7.30
2019-03-23T03:37:58.461Z,7.40
2019-03-23T03:40:27.192Z,7.30
2019-03-23T03:42:55.713Z,7.30
2019-03-23T03:45:27.591Z,7.30
2019-03-23T03:47:57.303Z,7.40
2019-03-23T03:50:27.608Z,7.40
2019-03-23T03:52:58.679Z,7.30
2019-03-23T03:55:28.401Z,7.40
2019-03-23T03:57:57.020Z,7.40
2019-03-23T04:00:25.496Z,7.30
2019-03-23T04:02:54.018Z,7.40
2019-03-23T04:05:22.543Z,7.40
2019-03-23T04:07:53.611Z,7.40
2019-03-23T04:10:22.099Z,7.40
2019-03-23T04:12:51.130Z,7.40
2019-03-23T04:15:20.849Z,7.50
2019-03-23T04:17:49.685Z,7.50
2019-03-23T04:20:19.736Z,7.60
2019-03-23T04:22:48.232Z,7.70
2019-03-23T04:25:18.610Z,7.80
2019-03-23T04:27:47.226Z,7.80
2019-03-23T04:30:19.572Z,7.90
2019-03-23T04:32:48.060Z,7.90
2019-03-23T04:35:17.813Z,8.00
2019-03-23T04:37:47.555Z,8.10
2019-03-23T04:40:20.407Z,8.10
2019-03-23T04:42:48.856Z,8.20
2019-03-23T04:45:17.724Z,8.20
2019-03-23T04:47:46.518Z,8.20
2019-03-23T04:50:17.459Z,8.30
2019-03-23T04:52:49.265Z,8.30
2019-03-23T04:55:19.443Z,8.40
2019-03-23T04:57:48.018Z,8.40
2019-03-23T05:00:20.831Z,8.40
2019-03-23T05:02:51.395Z,8.50
2019-03-23T05:05:19.870Z,8.50
2019-03-23T05:07:48.336Z,8.50
2019-03-23T05:10:17.751Z,8.60
2019-03-23T05:12:46.224Z,8.60
2019-03-23T05:15:17.840Z,8.60
2019-03-23T05:17:46.728Z,8.60
2019-03-23T05:20:22.792Z,8.70
2019-03-23T05:22:51.269Z,8.70
2019-03-23T05:25:26.807Z,8.70
2019-03-23T05:28:07.699Z,8.80
2019-03-23T05:30:36.156Z,8.80
2019-03-23T05:33:06.298Z,8.80
2019-03-23T05:35:34.898Z,8.80
2019-03-23T05:38:03.395Z,8.80
2019-03-23T05:40:31.864Z,8.90
2019-03-23T05:43:00.371Z,8.90
2019-03-23T05:45:31.105Z,8.90
2019-03-23T05:48:01.135Z,8.90
2019-03-23T05:50:29.666Z,9.00
2019-03-23T05:52:59.487Z,9.00
2019-03-23T05:55:28.191Z,9.00
2019-03-23T05:57:59.666Z,9.00
2019-03-23T06:00:28.240Z,9.10
2019-03-23T06:02:56.730Z,9.00
2019-03-23T06:05:25.226Z,9.00
2019-03-23T06:07:53.815Z,9.10
2019-03-23T06:10:22.316Z,9.10
2019-03-23T06:12:51.574Z,9.10
2019-03-23T06:15:23.107Z,9.10
2019-03-23T06:17:53.032Z,9.10
2019-03-23T06:20:21.546Z,9.20
2019-03-23T06:23:00.783Z,9.20
2019-03-23T06:25:31.414Z,9.20
2019-03-23T06:28:01.203Z,9.20
2019-03-23T06:30:29.729Z,9.30
2019-03-23T06:33:00.586Z,9.30
2019-03-23T06:35:29.075Z,9.30
2019-03-23T06:37:57.792Z,9.40
2019-03-23T06:40:29.065Z,9.40
2019-03-23T06:43:00.102Z,9.40
2019-03-23T06:45:34.049Z,9.40
2019-03-23T06:48:05.381Z,9.50
2019-03-23T06:50:38.200Z,9.50
2019-03-23T06:53:06.640Z,9.50
2019-03-23T06:55:35.396Z,9.60
2019-03-23T06:58:05.419Z,9.60
2019-03-23T07:00:34.686Z,9.60
2019-03-23T07:03:04.752Z,9.70
2019-03-23T07:05:36.726Z,9.70
2019-03-23T07:08:07.529Z,9.80
2019-03-23T07:10:40.195Z,9.70
2019-03-23T07:13:08.689Z,9.80
2019-03-23T07:15:40.614Z,9.80
2019-03-23T07:18:09.866Z,9.90
2019-03-23T07:20:41.638Z,9.90
2019-03-23T07:23:11.751Z,10.00
2019-03-23T07:25:40.882Z,10.00
2019-03-23T07:28:09.452Z,10.10
2019-03-23T07:30:37.990Z,10.10
2019-03-23T07:33:06.558Z,10.10
2019-03-23T07:35:35.052Z,10.10
2019-03-23T07:38:04.893Z,10.20
2019-03-23T07:40:33.713Z,10.10
2019-03-23T07:43:06.230Z,10.20
2019-03-23T07:45:34.693Z,10.20
2019-03-23T07:48:04.753Z,10.20
2019-03-23T07:50:34.235Z,10.30
2019-03-23T07:53:04.794Z,10.30
2019-03-23T07:55:34.178Z,10.30
2019-03-23T07:58:06.213Z,10.30
2019-03-23T08:00:34.767Z,10.40
2019-03-23T08:03:03.552Z,10.40
2019-03-23T08:05:43.026Z,10.40
2019-03-23T08:08:12.662Z,10.40
2019-03-23T08:10:41.150Z,10.50
2019-03-23T08:13:11.920Z,10.60
2019-03-23T08:15:40.458Z,10.60
2019-03-23T08:18:12.109Z,10.70
2019-03-23T08:23:31.349Z,10.70
2019-03-23T08:26:01.915Z,10.80
2019-03-23T08:28:32.372Z,10.80
2019-03-23T08:31:01.500Z,10.90
2019-03-23T08:33:30.096Z,10.90
2019-03-23T08:35:59.872Z,11.00
2019-03-23T08:38:28.307Z,11.00
2019-03-23T08:40:59.109Z,11.00
2019-03-23T08:43:27.587Z,11.10
2019-03-23T08:45:57.537Z,11.10
2019-03-23T08:48:26.862Z,11.20
2019-03-23T08:50:55.323Z,11.20
2019-03-23T08:53:26.005Z,11.30
2019-03-23T08:55:59.317Z,11.40
2019-03-23T08:58:29.487Z,11.40
2019-03-23T09:00:59.075Z,11.50
2019-03-23T09:03:29.843Z,11.60
2019-03-23T09:05:58.307Z,11.70
2019-03-23T09:08:26.783Z,11.70
2019-03-23T09:10:55.337Z,11.80
2019-03-23T09:13:23.796Z,11.90
2019-03-23T09:15:52.251Z,12.00
2019-03-23T09:18:20.744Z,12.10
2019-03-23T09:20:49.368Z,12.00
2019-03-23T09:23:17.839Z,12.10
2019-03-23T09:25:46.324Z,12.10
2019-03-23T09:28:14.781Z,12.10
2019-03-23T09:30:44.892Z,12.20
2019-03-23T09:33:13.456Z,12.20
2019-03-23T09:35:42.587Z,12.30
2019-03-23T09:38:11.039Z,12.40
2019-03-23T09:40:39.523Z,12.30
2019-03-23T09:43:07.979Z,12.40
2019-03-23T09:45:38.395Z,12.50
2019-03-23T09:48:06.888Z,12.70
2019-03-23T09:50:35.348Z,12.80
2019-03-23T09:53:06.120Z,12.90
2019-03-23T09:55:34.678Z,13.10
2019-03-23T09:58:03.143Z,13.10
2019-03-23T10:00:34.269Z,13.20
2019-03-23T10:03:05.136Z,13.20
2019-03-23T10:05:38.109Z,13.30
2019-03-23T10:08:06.900Z,13.40
2019-03-23T10:10:38.664Z,13.40
2019-03-23T10:13:07.854Z,13.50
2019-03-23T10:15:36.319Z,13.70
2019-03-23T10:18:07.743Z,13.80
2019-03-23T10:20:36.258Z,14.00
2019-03-23T10:23:07.052Z,14.20
2019-03-23T10:25:35.531Z,14.10
2019-03-23T10:28:05.007Z,13.80
2019-03-23T10:30:35.857Z,13.70
2019-03-23T10:33:05.004Z,13.60
2019-03-23T10:35:33.766Z,13.60
2019-03-23T10:38:02.433Z,13.50
2019-03-23T10:40:32.660Z,13.60
2019-03-23T10:43:04.790Z,13.50
2019-03-23T10:45:40.051Z,13.40
2019-03-23T10:48:05.480Z,13.30
2019-03-23T10:50:34.535Z,13.20
2019-03-23T10:53:05.736Z,13.10
2019-03-23T10:55:34.250Z,13.10
2019-03-23T10:58:02.781Z,13.00
2019-03-23T11:00:31.279Z,13.00
2019-03-23T11:02:59.831Z,12.90
2019-03-23T11:05:28.306Z,12.80
2019-03-23T11:07:56.799Z,12.80
2019-03-23T11:10:25.335Z,12.70
2019-03-23T11:12:53.889Z,12.60
2019-03-23T11:15:22.621Z,12.60
2019-03-23T11:17:59.602Z,12.50
2019-03-23T11:20:28.227Z,12.50
2019-03-23T11:22:57.926Z,12.50
2019-03-23T11:25:28.644Z,12.60
2019-03-23T11:27:57.128Z,12.60
2019-03-23T11:30:25.612Z,12.70
2019-03-23T11:32:54.119Z,12.70
2019-03-23T11:35:25.569Z,12.80
2019-03-23T11:37:54.501Z,12.80
2019-03-23T11:40:23.177Z,12.90
2019-03-23T11:42:51.707Z,12.90
2019-03-23T11:45:22.499Z,13.00
2019-03-23T11:47:51.043Z,12.80
2019-03-23T11:50:21.190Z,12.80
2019-03-23T11:52:49.681Z,12.80
2019-03-23T11:55:18.156Z,12.80
2019-03-23T11:57:46.780Z,12.80
2019-03-23T12:00:16.651Z,12.80
2019-03-23T12:02:45.193Z,12.80
2019-03-23T12:05:14.315Z,12.70
2019-03-23T12:07:50.368Z,12.60
2019-03-23T12:10:18.825Z,12.50
2019-03-23T12:12:47.489Z,12.40
2019-03-23T12:15:17.864Z,12.20
2019-03-23T12:17:46.367Z,12.10
2019-03-23T12:20:14.984Z,12.00
2019-03-23T12:22:43.501Z,11.90
2019-03-23T12:25:13.092Z,11.90
2019-03-23T12:27:42.361Z,11.80
2019-03-23T12:30:13.828Z,11.90
2019-03-23T12:32:42.333Z,11.80
2019-03-23T12:35:12.234Z,11.90
2019-03-23T12:37:40.855Z,12.10
2019-03-23T12:40:09.764Z,12.10
2019-03-23T12:42:38.284Z,12.20
2019-03-23T12:45:08.545Z,12.30
2019-03-23T12:47:37.298Z,12.40
2019-03-23T12:50:08.321Z,12.40
2019-03-23T12:52:36.900Z,12.50
2019-03-23T12:55:07.837Z,12.60
2019-03-23T12:57:36.506Z,12.60
2019-03-23T13:00:13.994Z,12.70
2019-03-23T13:02:42.567Z,12.70
2019-03-23T13:05:11.092Z,12.90
2019-03-23T13:07:39.803Z,13.00
2019-03-23T13:10:11.372Z,13.20
2019-03-23T13:12:40.010Z,13.30
2019-03-23T13:15:11.705Z,13.40
2019-03-23T13:20:29.168Z,13.60
2019-03-23T13:22:59.042Z,13.60
2019-03-23T13:25:27.582Z,13.60
2019-03-23T13:27:57.591Z,13.70
2019-03-23T13:30:27.403Z,13.80
2019-03-23T13:32:57.413Z,14.00
2019-03-23T13:35:25.942Z,14.20
2019-03-23T13:37:54.738Z,14.20
2019-03-23T13:40:23.447Z,14.10
2019-03-23T13:42:51.910Z,14.00
2019-03-23T13:45:20.384Z,14.10
2019-03-23T13:47:50.375Z,14.20
2019-03-23T13:50:29.606Z,14.20
2019-03-23T13:52:58.221Z,14.30
2019-03-23T13:55:29.370Z,14.10
2019-03-23T13:58:01.057Z,14.00
2019-03-23T14:00:30.083Z,13.80
2019-03-23T14:02:59.940Z,13.70
2019-03-23T14:05:28.610Z,13.60
2019-03-23T14:07:57.123Z,13.40
2019-03-23T14:10:28.010Z,13.30
2019-03-23T14:13:01.352Z,13.20
2019-03-23T14:15:29.921Z,13.10
2019-03-23T14:17:58.465Z,13.00
2019-03-23T14:20:27.181Z,12.90
2019-03-23T14:23:02.597Z,12.90
2019-03-23T14:25:25.907Z,12.80
2019-03-23T14:27:54.560Z,12.90
2019-03-23T14:30:23.264Z,12.90
2019-03-23T14:32:51.813Z,13.00
2019-03-23T14:35:20.386Z,12.80
2019-03-23T14:37:49.081Z,12.80
2019-03-23T14:40:17.565Z,12.70
2019-03-23T14:42:46.156Z,12.60
2019-03-23T14:45:15.861Z,12.60
2019-03-23T14:47:44.339Z,12.60
2019-03-23T14:50:13.084Z,12.60
2019-03-23T14:52:41.587Z,12.60
2019-03-23T14:55:10.153Z,12.60
2019-03-23T14:57:40.538Z,12.70
2019-03-23T15:00:10.924Z,12.70
2019-03-23T15:02:40.771Z,12.80
2019-03-23T15:05:09.436Z,12.70
2019-03-23T15:07:42.519Z,12.90
2019-03-23T15:10:11.330Z,12.90
2019-03-23T15:12:41.582Z,12.90
2019-03-23T15:15:16.036Z,13.00
2019-03-23T15:17:48.768Z,13.00
2019-03-23T15:20:17.427Z,13.00
2019-03-23T15:22:45.986Z,13.00
2019-03-23T15:25:14.520Z,13.10
2019-03-23T15:27:43.448Z,13.20
2019-03-23T15:30:12.210Z,13.20
2019-03-23T15:32:40.766Z,13.30
2019-03-23T15:35:09.403Z,13.50
2019-03-23T15:37:38.033Z,13.60
2019-03-23T15:40:11.038Z,13.60
2019-03-23T15:42:39.891Z,13.60
2019-03-23T15:45:10.168Z,13.70
2019-03-23T15:47:38.899Z,13.80
2019-03-23T15:50:08.381Z,13.80
2019-03-23T15:52:37.107Z,13.90
2019-03-23T15:55:10.681Z,13.90
2019-03-23T15:57:39.330Z,14.00
2019-03-23T16:00:11.998Z,14.20
2019-03-23T16:02:41.350Z,14.40
2019-03-23T16:05:10.797Z,14.50
2019-03-23T16:07:43.391Z,14.60
2019-03-23T16:10:12.027Z,14.70
2019-03-23T16:12:40.956Z,14.60
2019-03-23T16:15:11.745Z,14.40
2019-03-23T16:17:42.357Z,14.40
2019-03-23T16:20:13.107Z,14.50
2019-03-23T16:22:41.741Z,14.60
2019-03-23T16:25:11.079Z,14.70
2019-03-23T16:27:40.756Z,14.70
2019-03-23T16:30:13.130Z,14.80
2019-03-23T16:32:41.672Z,14.90
2019-03-23T16:35:11.294Z,15.00
2019-03-23T16:37:40.002Z,14.90
2019-03-23T16:40:11.956Z,14.80
2019-03-23T16:42:45.265Z,14.70
2019-03-23T16:45:11.157Z,14.40
2019-03-23T16:47:39.692Z,14.10
2019-03-23T16:50:12.079Z,13.80
2019-03-23T16:52:41.866Z,13.70
2019-03-23T16:55:12.243Z,13.60
2019-03-23T16:57:40.696Z,13.60
2019-03-23T17:00:12.007Z,13.70
2019-03-23T17:02:43.677Z,13.60
2019-03-23T17:05:13.654Z,13.40
2019-03-23T17:07:42.929Z,13.00
2019-03-23T17:10:13.109Z,12.70
2019-03-23T17:12:43.640Z,12.40
2019-03-23T17:15:13.255Z,12.20
2019-03-23T17:17:43.975Z,11.80
2019-03-23T17:20:13.926Z,11.50
2019-03-23T17:22:42.384Z,11.20
2019-03-23T17:25:12.209Z,11.10
2019-03-23T17:27:41.224Z,10.90
2019-03-23T17:30:15.310Z,10.70
2019-03-23T17:32:47.367Z,10.60
2019-03-23T17:35:17.601Z,10.50
2019-03-23T17:37:50.375Z,10.40
2019-03-23T17:40:20.559Z,10.20
2019-03-23T17:42:54.608Z,10.10
2019-03-23T17:45:23.447Z,9.90
2019-03-23T17:48:01.678Z,9.80
2019-03-23T17:50:30.178Z,9.60
2019-03-23T17:52:58.759Z,9.50
2019-03-23T17:55:28.744Z,9.30
2019-03-23T17:57:57.450Z,9.20
2019-03-23T18:00:27.592Z,9.00
2019-03-23T18:02:56.184Z,8.90
2019-03-23T18:05:27.720Z,8.80
2019-03-23T18:07:56.246Z,8.70
2019-03-23T18:10:24.826Z,8.50
2019-03-23T18:12:53.347Z,8.40
2019-03-23T18:15:23.754Z,8.40
2019-03-23T18:17:53.643Z,8.30
2019-03-23T18:20:22.234Z,8.20
2019-03-23T18:22:50.671Z,8.20
2019-03-23T18:25:19.596Z,8.10
2019-03-23T18:27:48.205Z,8.00
2019-03-23T18:30:28.383Z,7.90
2019-03-23T18:32:58.301Z,7.80
2019-03-23T18:35:26.824Z,7.80
2019-03-23T18:37:55.269Z,7.70
2019-03-23T18:40:24.877Z,7.60
2019-03-23T18:42:54.151Z,7.50
2019-03-23T18:45:22.668Z,7.50
2019-03-23T18:47:52.481Z,7.40
2019-03-23T18:50:21.012Z,7.40
2019-03-23T18:52:49.583Z,7.30
2019-03-23T18:55:18.379Z,7.30
2019-03-23T18:57:48.394Z,7.20
2019-03-23T19:00:42.927Z,7.20
2019-03-23T19:03:11.729Z,7.10
2019-03-23T19:05:40.254Z,7.00
2019-03-23T19:08:11.773Z,6.90
2019-03-23T19:10:39.837Z,6.90
2019-03-23T19:13:08.466Z,6.90
2019-03-23T19:15:38.954Z,6.80
2019-03-23T19:18:07.741Z,6.70
2019-03-23T19:20:37.912Z,6.70
2019-03-23T19:23:06.565Z,6.60
2019-03-23T19:25:35.345Z,6.60
2019-03-23T19:28:03.872Z,6.50
2019-03-23T19:30:32.379Z,6.50
2019-03-23T19:33:00.904Z,6.40
2019-03-23T19:35:30.913Z,6.40
2019-03-23T19:38:03.000Z,6.40
2019-03-23T19:40:31.626Z,6.30
2019-03-23T19:43:00.172Z,6.30
2019-03-23T19:45:29.526Z,6.30
2019-03-23T19:47:58.056Z,6.20
2019-03-23T19:50:26.579Z,6.30
2019-03-23T19:52:55.111Z,6.20
2019-03-23T19:55:23.601Z,6.20
2019-03-23T19:57:54.585Z,6.20
2019-03-23T20:00:22.602Z,6.10
2019-03-23T20:02:53.351Z,6.10
2019-03-23T20:05:24.605Z,6.10
2019-03-23T20:07:53.684Z,6.10
2019-03-23T20:10:22.274Z,6.00
2019-03-23T20:12:52.201Z,6.00
2019-03-23T20:15:20.829Z,6.00
2019-03-23T20:17:50.533Z,6.00
2019-03-23T20:20:20.106Z,5.90
2019-03-23T20:22:49.460Z,5.90
2019-03-23T20:25:17.983Z,5.90
2019-03-23T20:27:46.796Z,5.80
2019-03-23T20:30:18.750Z,5.80
2019-03-23T20:32:47.232Z,5.70
2019-03-23T20:35:16.075Z,5.70
2019-03-23T20:37:47.767Z,5.70
2019-03-23T20:40:16.570Z,5.70
2019-03-23T20:42:49.008Z,5.60
2019-03-23T20:45:28.454Z,5.60
2019-03-23T20:47:57.619Z,5.60
2019-03-23T20:50:26.228Z,5.60
2019-03-23T20:52:56.374Z,5.50
2019-03-23T20:55:29.765Z,5.50
2019-03-23T20:57:58.786Z,5.50
2019-03-23T21:00:27.802Z,5.50
2019-03-23T21:02:56.633Z,5.40
2019-03-23T21:05:33.888Z,5.40
2019-03-23T21:08:00.374Z,5.50
2019-03-23T21:10:30.435Z,5.50
2019-03-23T21:13:00.197Z,5.40
2019-03-23T21:15:30.217Z,5.40
2019-03-23T21:18:04.174Z,5.30
2019-03-23T21:20:34.265Z,5.20
2019-03-23T21:23:02.917Z,5.20
2019-03-23T21:25:31.374Z,5.10
2019-03-23T21:28:01.195Z,5.10
2019-03-23T21:30:29.806Z,5.10
2019-03-23T21:32:58.263Z,5.20
2019-03-23T21:35:26.788Z,5.20
2019-03-23T21:37:58.503Z,5.30
2019-03-23T21:40:27.843Z,5.30
2019-03-23T21:42:59.839Z,5.20
2019-03-23T21:45:30.429Z,5.10
2019-03-23T21:47:59.063Z,5.10
2019-03-23T21:50:28.102Z,4.90
2019-03-23T21:52:56.625Z,4.90
2019-03-23T21:55:26.255Z,4.80
2019-03-23T21:57:54.771Z,4.90
2019-03-23T22:00:34.320Z,4.80
2019-03-23T22:03:04.450Z,4.80
2019-03-23T22:05:34.689Z,4.80
2019-03-23T22:08:11.158Z,4.80
2019-03-23T22:10:39.647Z,4.70
2019-03-23T22:13:08.352Z,4.70
2019-03-23T22:15:36.950Z,4.60
2019-03-23T22:18:05.612Z,4.60
2019-03-23T22:20:34.140Z,4.60
2019-03-23T22:23:02.749Z,4.50
2019-03-23T22:25:31.287Z,4.50
2019-03-23T22:27:59.904Z,4.50
2019-03-23T22:30:29.787Z,4.50
2019-03-23T22:32:58.251Z,4.50
2019-03-23T22:35:27.981Z,4.50
2019-03-23T22:37:57.478Z,4.50
2019-03-23T22:40:28.383Z,4.40
2019-03-23T22:42:57.067Z,4.40
2019-03-23T22:45:27.365Z,4.40
2019-03-23T22:47:56.311Z,4.40
2019-03-23T22:50:24.757Z,4.30
2019-03-23T22:52:54.603Z,4.30
2019-03-23T22:55:24.631Z,4.30
2019-03-23T22:58:00.176Z,4.30
2019-03-23T23:00:33.596Z,4.30
2019-03-23T23:03:02.076Z,4.20
2019-03-23T23:05:30.672Z,4.30
2019-03-23T23:07:59.453Z,4.20
2019-03-23T23:10:29.669Z,4.20
2019-03-23T23:12:58.111Z,4.20
2019-03-23T23:15:29.294Z,4.10
2019-03-23T23:18:00.143Z,4.10
2019-03-23T23:20:28.784Z,4.10
2019-03-23T23:22:57.904Z,4.10
2019-03-23T23:25:27.209Z,4.10
2019-03-23T23:28:05.958Z,4.00
2019-03-23T23:30:34.507Z,4.00
2019-03-23T23:33:03.022Z,4.00
2019-03-23T23:35:31.488Z,4.00
2019-03-23T23:37:59.967Z,4.00
2019-03-23T23:40:28.480Z,3.90
2019-03-23T23:42:59.282Z,3.90
2019-03-23T23:45:29.117Z,3.90
2019-03-23T23:47:59.073Z,3.90
2019-03-23T23:50:27.576Z,3.80
2019-03-23T23:52:56.059Z,3.80
2019-03-23T23:55:26.161Z,3.70
2019-03-23T23:57:54.672Z,3.70
